Time;durP1;ratioP1;P1;durP2;ratioP2;P2;SDS_P1;SDS_P2;PMS_P1;PMS_P2;Temp;Humidity;BMP_temperature;BMP_pressure;BME280_temperature;BME280_humidity;BME280_pressure;Samples;Min_cycle;Max_cycle;Signal;HPM_P1;HPM_P2
2024/03/28 00:01:07;;;;;;;1.50;1.20;;;;;;;8.35;55.04;97874.48;105884;1252;61141;-26
2024/03/28 00:03:34;;;;;;;1.20;1.00;;;;;;;8.25;55.43;97876.90;105829;1253;73963;-26
2024/03/28 00:06:03;;;;;;;1.70;1.20;;;;;;;8.17;55.43;97878.81;105749;1259;74203;-25
2024/03/28 00:08:31;;;;;;;1.60;1.10;;;;;;;8.07;55.51;97876.80;105707;1259;72463;-26
2024/03/28 00:10:57;;;;;;;1.60;1.10;;;;;;;8.07;55.59;97875.39;105827;1253;61068;-27
2024/03/28 00:13:25;;;;;;;2.40;1.30;;;;;;;8.06;55.59;97874.64;105828;1257;61045;-26
2024/03/28 00:16:02;;;;;;;2.30;1.50;;;;;;;7.99;55.60;97869.04;105532;1256;73825;-26
2024/03/28 00:18:29;;;;;;;2.00;1.40;;;;;;;7.95;55.76;97863.70;105659;1260;74301;-26
2024/03/28 00:21:03;;;;;;;1.60;1.30;;;;;;;7.88;55.60;97856.02;105844;1253;72534;-25
2024/03/28 00:23:30;;;;;;;3.30;1.00;;;;;;;7.91;55.71;97854.53;105690;1258;61201;-26
2024/03/28 00:25:58;;;;;;;2.10;1.40;;;;;;;7.90;55.59;97854.09;105848;1257;61087;-26
2024/03/28 00:28:25;;;;;;;1.30;1.00;;;;;;;7.85;55.85;97852.16;105824;1258;73568;-26
2024/03/28 00:30:52;;;;;;;2.70;1.80;;;;;;;8.38;54.74;97852.02;105752;1257;74494;-26
2024/03/28 00:33:19;;;;;;;2.00;1.10;;;;;;;8.74;53.48;97845.14;105684;1254;72649;-26
2024/03/28 00:35:47;;;;;;;1.40;1.20;;;;;;;8.80;53.15;97840.99;105721;1257;61148;-26
2024/03/28 00:38:15;;;;;;;1.40;1.00;;;;;;;8.65;53.39;97833.89;105617;1258;61201;-26
2024/03/28 00:40:50;;;;;;;1.20;1.10;;;;;;;8.53;53.48;97826.48;105486;1257;73591;-26
2024/03/28 00:43:17;;;;;;;2.00;1.20;;;;;;;8.43;53.79;97826.98;105738;1253;74091;-26
2024/03/28 00:45:44;;;;;;;2.70;1.20;;;;;;;8.37;54.03;97828.43;105546;1253;72707;-26
2024/03/28 00:48:11;;;;;;;1.90;1.30;;;;;;;8.27;54.45;97824.92;105786;1254;61032;-27
2024/03/28 00:50:38;;;;;;;2.20;1.70;;;;;;;8.16;54.55;97823.47;105900;1255;61186;-27
2024/03/28 00:53:05;;;;;;;2.60;1.60;;;;;;;8.03;54.78;97820.43;105871;1257;73672;-27
2024/03/28 00:55:35;;;;;;;3.80;1.40;;;;;;;7.95;54.96;97812.86;105859;1257;74800;-27
2024/03/28 00:58:02;;;;;;;1.60;1.40;;;;;;;7.91;55.14;97810.17;105781;1256;72455;-26
2024/03/28 01:00:30;;;;;;;2.30;1.00;;;;;;;8.02;54.77;97803.79;105830;1266;61331;-27
2024/03/28 01:02:57;;;;;;;1.50;0.90;;;;;;;7.91;54.99;97804.46;105885;1265;61317;-26
2024/03/28 01:05:25;;;;;;;4.70;1.80;;;;;;;7.89;55.05;97808.02;105788;1256;74977;-27
2024/03/28 01:07:52;;;;;;;1.60;1.40;;;;;;;7.82;55.15;97804.00;105865;1257;74402;-27
2024/03/28 01:10:19;;;;;;;2.00;1.60;;;;;;;7.81;55.31;97805.52;105889;1257;72622;-27
2024/03/28 01:12:46;;;;;;;3.20;1.60;;;;;;;7.75;55.42;97800.30;105823;1253;61265;-27
2024/03/28 01:15:13;;;;;;;5.50;2.60;;;;;;;7.75;55.47;97801.04;105850;1257;61133;-27
2024/03/28 01:17:40;;;;;;;2.60;2.00;;;;;;;7.66;55.81;97797.99;105876;1257;74637;-27
2024/03/28 01:20:08;;;;;;;3.20;1.90;;;;;;;8.20;54.82;97795.77;105867;1257;74419;-27
2024/03/28 01:22:35;;;;;;;6.30;2.70;;;;;;;8.73;53.36;97797.30;105907;1259;72626;-27
2024/03/28 01:25:02;;;;;;;5.20;2.70;;;;;;;8.72;52.85;97791.48;105843;1254;61331;-27
2024/03/28 01:27:29;;;;;;;1.70;1.10;;;;;;;8.66;53.11;97785.70;105858;1259;61118;-27
2024/03/28 01:29:56;;;;;;;4.80;1.30;;;;;;;8.53;53.24;97784.50;105862;1257;75170;-27
2024/03/28 01:32:25;;;;;;;3.60;1.60;;;;;;;8.44;53.46;97783.56;105682;1253;74059;-27
2024/03/28 01:34:52;;;;;;;2.00;1.00;;;;;;;8.30;54.03;97774.77;105780;1256;72632;-27
2024/03/28 01:37:19;;;;;;;2.10;1.30;;;;;;;8.17;54.20;97772.47;105715;1258;61315;-27
2024/03/28 01:39:47;;;;;;;6.10;1.70;;;;;;;8.12;54.23;97765.08;105661;1263;61204;-27
2024/03/28 01:42:14;;;;;;;1.60;1.20;;;;;;;7.97;54.56;97762.95;105864;1257;74528;-27
2024/03/28 01:44:41;;;;;;;1.30;1.20;;;;;;;7.98;54.74;97761.11;105793;1259;74300;-28
2024/03/28 01:47:08;;;;;;;2.30;1.30;;;;;;;7.99;54.66;97761.20;105571;1257;72397;-27
2024/03/28 01:49:55;;;;;;;2.20;1.60;;;;;;;7.85;55.04;97761.06;105782;1257;61225;-27
2024/03/28 01:52:22;;;;;;;1.50;1.00;;;;;;;7.81;55.13;97760.39;105863;1256;61218;-28
2024/03/28 01:54:49;;;;;;;3.60;1.30;;;;;;;7.78;55.17;97759.14;105878;1258;74469;-27
2024/03/28 01:57:16;;;;;;;1.30;1.00;;;;;;;7.82;55.20;97760.49;105833;1265;73671;-28
2024/03/28 01:59:42;;;;;;;4.00;1.40;;;;;;;7.70;55.34;97764.14;105707;1254;71541;-28
2024/03/28 02:02:10;;;;;;;1.90;1.00;;;;;;;7.74;55.55;97759.45;105853;1254;61592;-28
2024/03/28 02:04:36;;;;;;;2.40;1.10;;;;;;;7.69;55.56;97748.80;105635;1258;61142;-27
2024/03/28 02:07:03;;;;;;;1.60;0.60;;;;;;;7.72;55.92;97756.89;105738;1257;73715;-27
2024/03/28 02:09:30;;;;;;;2.10;1.50;;;;;;;8.43;54.16;97751.50;105695;1258;74337;-27
2024/03/28 02:11:58;;;;;;;2.10;1.20;;;;;;;8.73;52.93;97751.30;105737;1255;72904;-28
2024/03/28 02:14:25;;;;;;;2.40;0.90;;;;;;;8.82;52.66;97759.09;105550;1260;61359;-28
2024/03/28 02:16:52;;;;;;;1.30;1.00;;;;;;;8.69;53.02;97760.69;105788;1257;61215;-27
2024/03/28 02:19:19;;;;;;;2.10;1.30;;;;;;;8.55;53.17;97756.63;105859;1255;74409;-27
2024/03/28 02:21:46;;;;;;;1.40;0.80;;;;;;;8.45;53.32;97760.23;105839;1263;74376;-27
2024/03/28 02:24:14;;;;;;;2.90;1.10;;;;;;;8.30;53.85;97758.22;105850;1254;72651;-27
2024/03/28 02:26:41;;;;;;;0.70;0.70;;;;;;;8.18;54.27;97755.79;105876;1257;61330;-27
2024/03/28 02:29:07;;;;;;;3.10;1.10;;;;;;;8.12;54.30;97754.12;105864;1254;61173;-27
2024/03/28 02:31:34;;;;;;;1.90;1.40;;;;;;;8.05;54.46;97754.77;105839;1254;74452;-27
2024/03/28 02:34:01;;;;;;;1.70;1.20;;;;;;;7.97;54.61;97752.52;105794;1257;74190;-27
2024/03/28 02:36:28;;;;;;;4.90;1.20;;;;;;;7.98;54.75;97751.10;105828;1254;73148;-27
2024/03/28 02:38:55;;;;;;;1.90;1.00;;;;;;;7.90;55.00;97750.23;105849;1256;61330;-27
2024/03/28 02:41:22;;;;;;;1.90;1.00;;;;;;;7.85;55.22;97748.13;105820;1257;61157;-28
2024/03/28 02:43:49;;;;;;;1.70;1.10;;;;;;;7.82;55.45;97745.81;105857;1256;75191;-28
2024/03/28 02:46:16;;;;;;;2.00;0.90;;;;;;;7.73;55.64;97744.48;105868;1257;74775;-28
2024/03/28 02:48:43;;;;;;;1.50;1.10;;;;;;;7.80;55.51;97738.05;105808;1254;73073;-28
2024/03/28 02:51:10;;;;;;;1.70;1.00;;;;;;;7.73;55.85;97738.67;105856;1254;61331;-27
2024/03/28 02:53:37;;;;;;;1.90;1.50;;;;;;;8.01;55.51;97733.85;105640;1256;61225;-27
2024/03/28 02:56:04;;;;;;;2.00;1.10;;;;;;;8.61;53.99;97736.66;105809;1257;74453;-27
2024/03/28 02:58:31;;;;;;;2.40;1.60;;;;;;;8.88;53.10;97737.46;105858;1259;74176;-27
2024/03/28 03:01:04;;;;;;;2.10;1.70;;;;;;;8.74;53.28;97737.66;105833;1254;73009;-27
2024/03/28 03:03:31;;;;;;;2.10;1.60;;;;;;;8.60;53.58;97735.55;105739;1259;61593;-27
2024/03/28 03:05:58;;;;;;;3.00;1.40;;;;;;;8.58;53.63;97735.98;105842;1258;61217;-28
2024/03/28 03:08:25;;;;;;;3.90;1.60;;;;;;;8.37;54.11;97732.07;105906;1254;74601;-27
2024/03/28 03:10:52;;;;;;;2.40;1.70;;;;;;;8.29;54.41;97721.49;105691;1257;74238;-27
2024/03/28 03:13:18;;;;;;;2.00;1.30;;;;;;;8.16;54.80;97728.69;105843;1254;71538;-27
2024/03/28 03:15:52;;;;;;;1.90;1.30;;;;;;;8.20;54.77;97727.99;105882;1254;61264;-27
2024/03/28 03:18:25;;;;;;;4.10;1.50;;;;;;;7.92;55.19;97718.59;105538;1254;61602;-27
2024/03/28 03:21:00;;;;;;;;;;;;;;;7.94;55.41;97727.43;105862;1254;74526;-28
2024/03/28 03:23:35;;;;;;;4.10;1.30;;;;;;;7.82;55.69;97724.18;105714;1254;73012;-27
2024/03/28 03:26:11;;;;;;;1.80;1.20;;;;;;;7.77;55.86;97725.34;105720;1255;73155;-27
2024/03/28 03:36:56;;;;;;;1.50;0.90;;;;;;;7.55;56.47;97708.14;105870;1257;74841;-28
2024/03/28 03:39:23;;;;;;;4.50;1.20;;;;;;;8.15;55.20;97719.93;105787;1255;72659;-28
2024/03/28 03:41:50;;;;;;;2.40;1.10;;;;;;;8.46;54.20;97722.36;105867;1254;61288;-27
2024/03/28 03:44:17;;;;;;;3.10;1.70;;;;;;;8.48;54.00;97726.96;105744;1257;61224;-28
2024/03/28 03:46:44;;;;;;;1.90;1.20;;;;;;;8.42;54.07;97721.30;105847;1257;74495;-27
2024/03/28 03:49:14;;;;;;;2.20;1.30;;;;;;;8.32;54.15;97717.71;105858;1254;74349;-28
2024/03/28 03:51:41;;;;;;;6.20;2.00;;;;;;;8.15;54.59;97711.17;105823;1255;72612;-28
2024/03/28 03:54:08;;;;;;;2.80;1.00;;;;;;;8.05;54.94;97714.52;105862;1253;61279;-27
2024/03/28 03:56:35;;;;;;;0.60;0.60;;;;;;;7.95;55.30;97708.29;105900;1267;61579;-28
2024/03/28 03:59:02;;;;;;;2.30;1.20;;;;;;;7.85;55.54;97702.30;105853;1254;74503;-28
2024/03/28 04:01:29;;;;;;;3.00;1.20;;;;;;;7.69;55.98;97696.84;105852;1257;74308;-27
2024/03/28 04:03:56;;;;;;;1.70;1.30;;;;;;;7.65;56.20;97693.80;105665;1256;72485;-28
2024/03/28 04:06:23;;;;;;;1.90;1.20;;;;;;;7.74;55.98;97694.49;105733;1257;61360;-28
2024/03/28 04:08:50;;;;;;;2.40;1.20;;;;;;;7.70;56.03;97690.42;105635;1256;61184;-28
2024/03/28 04:11:17;;;;;;;1.50;1.00;;;;;;;7.63;56.24;97694.95;105789;1255;74453;-28
2024/03/28 04:13:44;;;;;;;4.80;1.70;;;;;;;7.65;56.46;97697.35;105882;1257;74095;-28
2024/03/28 04:16:11;;;;;;;2.80;0.80;;;;;;;7.94;56.02;97691.16;105748;1252;72502;-27
2024/03/28 04:18:38;;;;;;;2.90;1.20;;;;;;;8.42;54.58;97698.13;105853;1257;61270;-27
2024/03/28 04:21:05;;;;;;;2.90;1.00;;;;;;;8.74;53.66;97702.80;105835;1257;61155;-28
2024/03/28 04:23:32;;;;;;;1.90;0.90;;;;;;;8.71;53.59;97700.46;105836;1254;74464;-27
2024/03/28 04:25:59;;;;;;;1.30;1.00;;;;;;;8.59;53.67;97699.34;105870;1257;74266;-28
2024/03/28 04:28:26;;;;;;;2.60;1.10;;;;;;;8.56;53.75;97700.66;105674;1254;72991;-27
2024/03/28 04:30:53;;;;;;;3.50;1.30;;;;;;;8.38;54.22;97695.77;105771;1254;61371;-27
2024/03/28 04:33:20;;;;;;;2.50;1.10;;;;;;;8.26;54.69;97700.27;105848;1258;61905;-27
2024/03/28 04:35:47;;;;;;;2.10;1.10;;;;;;;8.28;54.83;97699.41;105674;1255;74483;-27
2024/03/28 04:38:15;;;;;;;2.70;1.40;;;;;;;8.26;55.09;97696.12;105807;1257;74332;-27
2024/03/28 04:40:42;;;;;;;2.50;1.00;;;;;;;8.11;55.55;97685.04;105830;1254;72520;-27
2024/03/28 04:43:11;;;;;;;0.90;0.80;;;;;;;8.01;55.80;97674.27;105773;1254;61315;-27
2024/03/28 04:45:38;;;;;;;3.20;0.90;;;;;;;8.21;55.51;97680.17;105839;1257;61219;-27
2024/03/28 04:48:06;;;;;;;1.40;0.90;;;;;;;8.27;55.39;97678.27;105688;1254;74489;-27
2024/03/28 04:50:34;;;;;;;2.30;1.20;;;;;;;8.32;55.68;97678.64;105903;1254;74304;-26
2024/03/28 04:53:01;;;;;;;3.90;1.20;;;;;;;8.32;55.62;97675.23;105873;1253;73135;-27
2024/03/28 04:55:28;;;;;;;2.80;1.20;;;;;;;8.31;55.75;97673.06;105772;1254;61339;-27
2024/03/28 04:57:55;;;;;;;1.40;1.10;;;;;;;8.40;55.81;97677.54;105776;1255;61234;-27
2024/03/28 05:00:22;;;;;;;2.50;1.20;;;;;;;8.48;55.52;97676.86;105884;1254;74640;-27
2024/03/28 05:02:49;;;;;;;1.80;1.50;;;;;;;8.49;55.54;97680.75;105880;1257;74317;-27
2024/03/28 05:05:17;;;;;;;2.30;1.10;;;;;;;8.63;55.25;97682.00;105758;1255;72553;-27
2024/03/28 05:07:44;;;;;;;1.00;0.90;;;;;;;8.72;54.93;97682.20;105728;1254;61332;-27
2024/03/28 05:10:11;;;;;;;1.40;1.10;;;;;;;8.72;55.10;97679.37;105844;1255;61161;-27
2024/03/28 05:12:38;;;;;;;1.90;1.00;;;;;;;8.76;54.93;97670.73;105870;1254;74617;-27
2024/03/28 05:15:06;;;;;;;7.20;1.70;;;;;;;8.73;55.21;97680.73;105917;1257;74320;-27
2024/03/28 05:17:33;;;;;;;2.70;1.40;;;;;;;8.90;55.11;97677.55;105751;1257;72702;-27
2024/03/28 05:20:00;;;;;;;2.70;1.40;;;;;;;8.90;55.06;97665.25;105902;1258;61333;-27
2024/03/28 05:22:27;;;;;;;2.70;1.30;;;;;;;8.94;54.89;97663.11;105891;1257;61254;-27
2024/03/28 05:24:55;;;;;;;1.20;0.80;;;;;;;8.94;54.99;97651.51;105923;1254;74221;-27
2024/03/28 05:27:22;;;;;;;1.60;0.90;;;;;;;9.13;54.54;97656.00;105895;1257;74369;-26
2024/03/28 05:29:52;;;;;;;1.00;0.90;;;;;;;9.18;54.64;97651.83;105847;1257;72663;-27
2024/03/28 05:32:19;;;;;;;3.80;1.30;;;;;;;9.21;54.47;97643.41;105643;1254;61281;-26
2024/03/28 05:34:46;;;;;;;3.10;1.50;;;;;;;9.18;54.56;97645.11;105745;1255;61787;-26
2024/03/28 05:37:13;;;;;;;2.10;1.10;;;;;;;9.35;54.30;97645.70;105904;1254;74932;-27
2024/03/28 05:39:40;;;;;;;1.40;1.20;;;;;;;9.32;54.31;97639.00;105900;1255;74294;-26
2024/03/28 05:42:06;;;;;;;1.50;1.20;;;;;;;9.34;54.57;97640.38;105890;1254;72672;-26
2024/03/28 05:44:34;;;;;;;2.30;1.10;;;;;;;9.56;54.14;97643.58;105890;1253;61325;-27
2024/03/28 05:47:01;;;;;;;3.30;1.50;;;;;;;9.66;54.10;97633.30;105854;1257;61107;-27
2024/03/28 05:49:28;;;;;;;1.90;1.30;;;;;;;9.54;54.46;97636.74;105939;1254;74664;-27
2024/03/28 05:51:55;;;;;;;2.10;0.90;;;;;;;9.66;54.29;97637.81;105850;1257;74295;-27
2024/03/28 05:54:22;;;;;;;2.80;1.20;;;;;;;9.72;54.29;97631.09;105894;1254;72630;-27
2024/03/28 05:56:49;;;;;;;3.50;1.20;;;;;;;9.84;53.89;97630.30;105945;1254;61333;-27
2024/03/28 05:59:16;;;;;;;1.70;1.50;;;;;;;9.85;53.73;97625.11;105917;1257;61560;-27
2024/03/28 06:01:43;;;;;;;2.20;1.20;;;;;;;9.91;53.72;97622.45;105917;1254;74468;-27
2024/03/28 06:04:11;;;;;;;4.90;2.20;;;;;;;9.76;54.56;97621.33;105890;1253;74185;-27
2024/03/28 06:06:37;;;;;;;2.20;1.10;;;;;;;9.94;54.18;97625.29;105532;1253;72659;-27
2024/03/28 06:09:04;;;;;;;2.50;1.20;;;;;;;9.99;54.19;97629.95;105658;1257;61247;-27
2024/03/28 06:11:32;;;;;;;1.10;1.00;;;;;;;10.12;54.23;97632.60;105617;1257;61223;-27
2024/03/28 06:14:09;;;;;;;3.10;1.30;;;;;;;10.21;54.02;97629.48;105762;1254;74340;-27
2024/03/28 06:16:36;;;;;;;2.00;1.30;;;;;;;10.12;54.19;97624.31;105726;1254;74529;-26
2024/03/28 06:19:04;;;;;;;2.30;1.30;;;;;;;10.12;54.45;97622.42;105870;1257;72385;-27
2024/03/28 06:21:31;;;;;;;2.90;1.60;;;;;;;10.10;54.66;97609.94;105797;1253;61282;-27
2024/03/28 06:23:58;;;;;;;1.80;1.50;;;;;;;10.13;54.95;97614.52;105774;1257;61221;-27
2024/03/28 06:26:24;;;;;;;6.10;1.70;;;;;;;10.32;54.58;97612.89;105854;1254;74615;-27
2024/03/28 06:28:53;;;;;;;2.70;1.20;;;;;;;10.30;54.44;97608.12;105882;1254;74201;-27
2024/03/28 06:31:24;;;;;;;5.30;1.90;;;;;;;10.30;54.52;97606.52;105889;1253;72412;-27
2024/03/28 06:33:51;;;;;;;2.20;1.40;;;;;;;10.35;54.62;97604.09;105883;1253;61810;-26
2024/03/28 06:36:18;;;;;;;3.60;1.60;;;;;;;10.43;54.37;97598.43;105504;1257;61907;-27
2024/03/28 06:38:48;;;;;;;2.20;1.10;;;;;;;10.59;54.08;97603.12;105634;1257;75424;-27
2024/03/28 06:41:16;;;;;;;2.00;1.00;;;;;;;10.80;54.16;97605.70;105706;1253;75682;-27
2024/03/28 06:43:48;;;;;;;3.50;1.00;;;;;;;10.93;53.93;97604.02;105790;1257;74339;-26
2024/03/28 06:46:16;;;;;;;3.70;1.40;;;;;;;11.00;53.43;97596.34;105612;1256;62312;-27
2024/03/28 06:48:43;;;;;;;2.00;1.20;;;;;;;11.07;54.13;97600.27;105736;1258;61792;-27
2024/03/28 06:51:10;;;;;;;2.00;1.20;;;;;;;11.19;53.78;97589.30;105839;1253;76003;-27
2024/03/28 06:53:37;;;;;;;2.60;1.10;;;;;;;11.11;53.98;97571.05;105857;1254;74064;-27
2024/03/28 06:56:05;;;;;;;7.60;2.40;;;;;;;11.26;53.66;97583.16;105849;1255;73376;-27
2024/03/28 06:58:32;;;;;;;3.30;1.40;;;;;;;11.24;54.06;97575.56;105749;1253;61365;-27
2024/03/28 07:01:01;;;;;;;5.20;1.70;;;;;;;11.34;53.73;97575.04;105555;1257;61714;-27
2024/03/28 07:03:28;;;;;;;2.30;1.70;;;;;;;11.41;53.91;97573.01;105561;1257;75019;-27
2024/03/28 07:05:55;;;;;;;5.50;2.10;;;;;;;11.47;53.53;97569.66;105802;1257;74361;-27
2024/03/28 07:08:24;;;;;;;4.50;1.70;;;;;;;11.56;53.82;97573.34;105883;1256;72639;-27
2024/03/28 07:10:52;;;;;;;4.40;1.50;;;;;;;11.65;53.86;97572.04;105774;1257;61841;-27
2024/03/28 07:23:08;;;;;;;2.50;1.30;;;;;;;12.60;51.65;97551.45;105786;1257;76587;-27
2024/03/28 07:25:35;;;;;;;3.80;1.70;;;;;;;12.72;51.59;97557.81;105750;1254;74204;-26
2024/03/28 07:28:03;;;;;;;3.50;1.80;;;;;;;12.86;51.42;97553.05;105883;1257;61711;-26
2024/03/28 07:30:30;;;;;;;3.10;1.50;;;;;;;12.85;51.65;97551.67;105784;1256;61214;-26
2024/03/28 07:32:57;;;;;;;2.60;1.50;;;;;;;13.07;51.68;97556.80;105827;1254;76315;-27
2024/03/28 07:35:24;;;;;;;2.10;1.50;;;;;;;13.07;51.14;97550.00;105838;1257;76234;-26
2024/03/28 07:37:56;;;;;;;4.80;1.50;;;;;;;13.33;50.89;97557.27;105850;1254;74659;-26
2024/03/28 07:40:23;;;;;;;3.80;1.50;;;;;;;13.43;50.86;97556.86;105853;1254;61337;-27
2024/03/28 07:42:52;;;;;;;4.80;1.80;;;;;;;13.43;50.74;97549.81;105700;1257;61867;-27
2024/03/28 07:46:11;;;;;;;5.00;1.40;;;;;;;13.29;51.26;97551.44;105799;1254;76404;-27
2024/03/28 07:48:38;;;;;;;3.90;2.00;;;;;;;13.44;51.13;97552.50;105600;1256;74856;-27
2024/03/28 07:51:06;;;;;;;5.30;2.10;;;;;;;13.46;50.99;97536.77;105727;1254;73984;-26
2024/03/28 07:53:33;;;;;;;5.70;1.80;;;;;;;13.51;51.24;97536.15;105830;1253;61272;-27
2024/03/28 07:56:00;;;;;;;5.60;2.10;;;;;;;13.67;50.86;97537.54;105842;1257;61148;-27
2024/03/28 07:58:30;;;;;;;2.90;1.50;;;;;;;13.72;50.81;97541.23;105764;1257;75471;-26
2024/03/28 08:01:07;;;;;;;4.10;1.90;;;;;;;14.12;50.83;97530.61;105907;1256;76336;-27
2024/03/28 08:03:35;;;;;;;4.60;1.90;;;;;;;14.32;49.85;97530.66;105766;1254;74340;-26
2024/03/28 08:06:03;;;;;;;3.30;1.70;;;;;;;14.60;49.66;97540.89;105773;1253;62304;-27
2024/03/28 08:08:31;;;;;;;2.90;1.30;;;;;;;14.86;48.55;97543.46;105826;1254;61562;-26
2024/03/28 08:10:58;;;;;;;5.90;2.30;;;;;;;14.67;48.35;97524.83;105626;1258;74887;-26
2024/03/28 08:13:26;;;;;;;4.60;1.70;;;;;;;14.79;48.68;97526.94;105765;1257;75678;-27
2024/03/28 08:15:54;;;;;;;6.30;1.60;;;;;;;14.92;47.87;97518.80;105847;1253;73863;-26
2024/03/28 08:18:21;;;;;;;4.00;1.60;;;;;;;15.11;48.21;97515.09;105703;1257;61582;-26
2024/03/28 08:20:48;;;;;;;2.40;1.40;;;;;;;15.23;47.67;97512.58;105630;1258;61346;-26
2024/03/28 08:23:15;;;;;;;6.30;1.90;;;;;;;15.10;48.08;97513.17;105775;1254;76478;-26
2024/03/28 08:25:42;;;;;;;4.10;1.80;;;;;;;15.20;48.67;97508.93;105857;1257;75771;-26
2024/03/28 08:28:10;;;;;;;6.70;2.00;;;;;;;15.26;48.74;97518.02;105857;1253;74532;-26
2024/03/28 08:30:37;;;;;;;8.40;2.40;;;;;;;15.40;48.10;97508.00;105870;1257;61919;-26
2024/03/28 08:33:04;;;;;;;8.40;2.60;;;;;;;15.46;47.88;97526.79;105968;1257;61685;-27
2024/03/28 08:35:35;;;;;;;3.00;1.90;;;;;;;15.63;48.44;97519.31;105914;1256;75554;-26
2024/03/28 08:38:02;;;;;;;4.50;2.20;;;;;;;15.79;47.59;97519.04;105710;1259;76285;-26
2024/03/28 08:40:30;;;;;;;2.90;1.70;;;;;;;15.86;47.38;97523.71;105831;1257;74159;-26
2024/03/28 08:42:58;;;;;;;2.10;1.40;;;;;;;16.06;47.48;97522.02;105883;1257;62183;-26
2024/03/28 08:45:28;;;;;;;5.60;2.10;;;;;;;16.24;47.44;97520.39;105834;1257;62219;-26
2024/03/28 08:47:57;;;;;;;4.20;1.80;;;;;;;16.42;47.54;97508.61;105898;1253;76436;-26
2024/03/28 08:50:24;;;;;;;6.00;1.80;;;;;;;16.35;47.17;97502.11;105811;1254;74669;-26
2024/03/28 08:52:54;;;;;;;10.80;2.90;;;;;;;16.52;46.96;97501.18;105871;1253;74111;-26
2024/03/28 08:55:23;;;;;;;7.50;2.30;;;;;;;16.92;46.57;97497.31;105817;1257;61681;-26
2024/03/28 08:57:53;;;;;;;5.80;1.50;;;;;;;17.00;46.35;97481.99;105901;1253;61833;-26
2024/03/28 09:08:10;;;;;;;8.00;1.60;;;;;;;17.54;45.30;97469.91;102624;1291;601302;-25
2024/03/28 09:10:39;;;;;;;5.30;1.50;;;;;;;17.34;45.67;97477.09;105023;1266;61369;-26
2024/03/28 09:13:07;;;;;;;6.00;2.00;;;;;;;17.27;45.86;97479.67;104860;1267;61735;-26
2024/03/28 09:15:34;;;;;;;5.80;1.40;;;;;;;17.39;46.15;97478.09;104800;1267;75092;-26
2024/03/28 09:18:02;;;;;;;7.20;1.80;;;;;;;17.59;45.85;97471.80;104805;1272;76619;-27
2024/03/28 09:20:32;;;;;;;6.10;1.60;;;;;;;17.80;45.52;97465.65;104896;1267;74206;-27
2024/03/28 09:22:59;;;;;;;4.70;1.70;;;;;;;17.88;45.16;97451.59;101538;1269;61221;-26
2024/03/28 09:25:27;;;;;;;6.80;1.90;;;;;;;17.89;45.45;97448.64;105157;1268;74743;-26
2024/03/28 09:27:55;;;;;;;11.00;2.40;;;;;;;18.12;45.22;97439.09;105068;1269;77199;-26
2024/03/28 09:30:23;;;;;;;9.50;2.50;;;;;;;18.73;44.40;97440.77;105115;1263;76585;-26
2024/03/28 09:32:51;;;;;;;7.80;1.90;;;;;;;19.18;44.03;97440.11;105108;1264;62511;-26
2024/03/28 09:35:19;;;;;;;10.50;2.70;;;;;;;19.21;43.62;97426.89;104980;1263;61283;-27
2024/03/28 09:37:47;;;;;;;6.30;1.90;;;;;;;18.56;44.18;97437.00;104987;1269;75512;-27
2024/03/28 09:40:15;;;;;;;9.80;2.40;;;;;;;18.55;44.90;97437.09;105060;1264;77105;-26
2024/03/28 09:42:45;;;;;;;7.60;1.60;;;;;;;18.92;44.25;97429.85;105031;1267;74848;-27
2024/03/28 09:45:14;;;;;;;5.60;2.40;;;;;;;19.13;44.06;97433.71;104897;1264;61628;-26
2024/03/28 09:47:42;;;;;;;9.00;2.20;;;;;;;19.15;43.67;97431.35;105171;1269;61202;-26
2024/03/28 09:50:11;;;;;;;11.00;3.50;;;;;;;19.19;43.40;97430.77;104927;1260;76143;-27
2024/03/28 09:52:39;;;;;;;5.70;1.50;;;;;;;19.53;42.47;97418.66;105250;1260;75598;-26
2024/03/28 09:55:07;;;;;;;12.50;2.50;;;;;;;19.31;42.56;97410.66;105155;1263;76780;-26
2024/03/28 09:57:35;;;;;;;6.70;1.90;;;;;;;19.30;42.61;97409.96;105245;1261;62863;-26
2024/03/28 10:00:05;;;;;;;7.70;2.40;;;;;;;19.22;43.16;97409.01;105140;1261;64205;-27
2024/03/28 10:02:50;;;;;;;10.20;2.40;;;;;;;19.00;43.72;97405.79;105212;1267;76645;-26
2024/03/28 10:05:17;;;;;;;6.70;2.80;;;;;;;18.95;43.84;97411.85;105197;1263;76793;-26
2024/03/28 10:07:48;;;;;;;7.40;2.10;;;;;;;19.10;43.53;97412.36;105178;1263;75007;-27
2024/03/28 10:10:16;;;;;;;3.80;1.60;;;;;;;18.96;43.84;97411.84;105188;1261;63994;-27
2024/03/28 10:12:54;;;;;;;9.00;2.30;;;;;;;18.85;44.20;97404.35;105132;1260;61802;-26
2024/03/28 10:15:22;;;;;;;9.30;2.00;;;;;;;18.89;44.53;97397.70;105084;1261;76477;-26
2024/03/28 10:18:00;;;;;;;11.40;1.80;;;;;;;18.95;44.28;97401.68;105148;1266;75880;-27
2024/03/28 10:20:28;;;;;;;12.50;2.80;;;;;;;19.16;43.96;97405.72;104793;1270;73779;-27
2024/03/28 10:22:56;;;;;;;8.90;2.10;;;;;;;19.36;43.54;97411.16;105163;1261;61525;-26
2024/03/28 10:25:24;;;;;;;8.20;2.30;;;;;;;19.56;43.38;97410.50;105190;1261;61630;-26
2024/03/28 10:28:00;;;;;;;8.80;2.70;;;;;;;19.92;42.83;97413.48;105187;1263;76292;-27
2024/03/28 10:30:28;;;;;;;6.90;2.50;;;;;;;20.19;42.37;97413.13;104900;1270;78444;-27
2024/03/28 10:32:59;;;;;;;15.20;3.00;;;;;;;20.08;42.38;97401.39;105190;1261;72907;-27
2024/03/28 10:35:27;;;;;;;12.10;2.90;;;;;;;19.43;42.78;97393.05;105154;1267;61116;-27
2024/03/28 10:38:01;;;;;;;15.50;2.60;;;;;;;19.08;44.02;97390.14;105239;1263;62775;-27
2024/03/28 10:40:37;;;;;;;9.70;2.40;;;;;;;19.10;44.43;97393.91;105133;1269;74839;-26
2024/03/28 10:43:09;;;;;;;10.60;2.50;;;;;;;19.68;43.38;97399.45;105198;1266;73991;-26
2024/03/28 10:45:38;;;;;;;7.20;2.10;;;;;;;19.81;42.75;97393.98;105217;1263;75467;-27
2024/03/28 10:48:13;;;;;;;12.10;3.70;;;;;;;19.88;42.77;97390.25;105180;1264;62939;-26
2024/03/28 10:50:56;;;;;;;9.10;2.80;;;;;;;19.87;42.67;97395.05;105051;1260;61781;-27
2024/03/28 10:53:57;;;;;;;7.20;2.60;;;;;;;19.84;42.36;97387.41;105191;1263;76324;-26
2024/03/28 10:56:25;;;;;;;7.50;1.90;;;;;;;19.38;43.24;97400.70;105176;1267;75634;-26
2024/03/28 10:58:54;;;;;;;7.60;2.20;;;;;;;19.28;43.71;97388.52;105114;1263;75403;-30
2024/03/28 11:01:22;;;;;;;18.30;3.90;;;;;;;19.31;43.44;97392.18;105157;1263;62475;-26
2024/03/28 11:03:49;;;;;;;9.20;2.70;;;;;;;19.45;43.26;97379.34;105270;1262;61794;-26
2024/03/28 11:06:17;;;;;;;13.60;2.10;;;;;;;19.45;43.10;97375.31;105131;1261;75528;-26
2024/03/28 11:08:45;;;;;;;9.20;2.10;;;;;;;19.36;43.36;97367.07;105181;1264;76800;-26
2024/03/28 11:11:13;;;;;;;8.00;2.50;;;;;;;19.47;43.13;97361.00;105230;1263;75601;-26
2024/03/28 11:13:41;;;;;;;10.90;3.20;;;;;;;19.20;43.21;97349.27;105257;1263;61967;-26
2024/03/28 11:16:09;;;;;;;6.80;2.40;;;;;;;19.24;42.96;97348.89;105122;1267;62675;-26
2024/03/28 11:18:37;;;;;;;9.20;2.20;;;;;;;19.35;42.95;97346.46;105247;1265;75799;-26
2024/03/28 11:21:05;;;;;;;17.50;2.60;;;;;;;19.42;42.85;97348.69;105171;1263;77069;-26
2024/03/28 11:23:33;;;;;;;9.40;2.60;;;;;;;19.74;42.66;97343.32;105077;1263;75475;-26
2024/03/28 11:26:05;;;;;;;10.80;2.50;;;;;;;19.76;42.72;97345.89;105078;1267;61181;-27
2024/03/28 11:28:34;;;;;;;13.10;2.10;;;;;;;20.00;42.46;97363.56;105105;1267;62500;-27
2024/03/28 11:31:02;;;;;;;7.40;2.20;;;;;;;19.73;42.60;97363.84;104843;1264;76129;-27
2024/03/28 11:33:31;;;;;;;7.10;1.90;;;;;;;19.09;44.21;97374.66;104837;1263;76512;-26
2024/03/28 11:36:04;;;;;;;10.20;2.50;;;;;;;19.20;44.07;97372.96;104912;1261;75100;-26
2024/03/28 11:38:36;;;;;;;11.50;2.60;;;;;;;19.13;43.96;97371.54;105079;1263;62335;-27
2024/03/28 11:41:03;;;;;;;12.30;3.00;;;;;;;18.91;43.92;97360.58;105210;1266;62881;-27
2024/03/28 11:43:32;;;;;;;9.30;1.80;;;;;;;18.88;44.08;97367.42;105203;1263;76335;-27
2024/03/28 11:46:00;;;;;;;19.50;3.20;;;;;;;18.84;44.52;97361.37;105208;1263;77162;-27
2024/03/28 11:48:32;;;;;;;10.10;2.70;;;;;;;19.17;44.69;97370.23;105154;1264;72837;-27
2024/03/28 11:51:03;;;;;;;14.50;2.50;;;;;;;19.47;43.95;97359.48;104847;1270;62876;-28
2024/03/28 11:53:49;;;;;;;16.80;2.70;;;;;;;19.47;43.63;97350.52;105599;1254;61080;-27
2024/03/28 11:56:27;;;;;;;16.50;3.10;;;;;;;19.62;43.59;97341.63;105704;1257;77777;-26
2024/03/28 11:58:59;;;;;;;16.60;4.00;;;;;;;19.49;43.40;97328.25;105774;1254;76806;-27
2024/03/28 12:01:27;;;;;;;13.80;2.80;;;;;;;19.34;43.89;97321.55;105684;1254;72650;-28